sensor_id;sensor_type;location;lat;lon;timestamp;temperature;humidity
11983;DHT22;72623;51.184;7.176;2024-03-02T00:00:30;8.30;94.60
11983;DHT22;72623;51.184;7.176;2024-03-02T00:02:57;8.30;95.00
11983;DHT22;72623;51.184;7.176;2024-03-02T00:05:23;8.30;95.20
11983;DHT22;72623;51.184;7.176;2024-03-02T00:07:55;8.30;95.10
11983;DHT22;72623;51.184;7.176;2024-03-02T00:10:40;8.30;95.20
11983;DHT22;72623;51.184;7.176;2024-03-02T00:13:07;8.30;95.50
11983;DHT22;72623;51.184;7.176;2024-03-02T00:15:45;8.30;95.20
11983;DHT22;72623;51.184;7.176;2024-03-02T00:18:27;8.30;94.60
11983;DHT22;72623;51.184;7.176;2024-03-02T00:20:57;8.30;95.00
11983;DHT22;72623;51.184;7.176;2024-03-02T00:23:27;8.30;94.50
11983;DHT22;72623;51.184;7.176;2024-03-02T00:25:54;8.30;94.40
11983;DHT22;72623;51.184;7.176;2024-03-02T00:28:24;8.30;94.70
11983;DHT22;72623;51.184;7.176;2024-03-02T00:31:06;8.30;94.40
11983;DHT22;72623;51.184;7.176;2024-03-02T00:33:42;8.30;93.80
11983;DHT22;72623;51.184;7.176;2024-03-02T00:36:12;8.30;94.30
11983;DHT22;72623;51.184;7.176;2024-03-02T00:38:50;8.30;94.20
11983;DHT22;72623;51.184;7.176;2024-03-02T00:41:28;8.30;93.60
11983;DHT22;72623;51.184;7.176;2024-03-02T00:44:01;8.30;93.80
11983;DHT22;72623;51.184;7.176;2024-03-02T00:46:39;8.30;93.80
11983;DHT22;72623;51.184;7.176;2024-03-02T00:51:47;8.30;93.50
11983;DHT22;72623;51.184;7.176;2024-03-02T00:54:15;8.40;93.40
11983;DHT22;72623;51.184;7.176;2024-03-02T00:56:45;8.40;93.00
11983;DHT22;72623;51.184;7.176;2024-03-02T00:59:13;8.30;92.80
11983;DHT22;72623;51.184;7.176;2024-03-02T01:01:40;8.40;93.00
11983;DHT22;72623;51.184;7.176;2024-03-02T01:04:07;8.40;93.00
11983;DHT22;72623;51.184;7.176;2024-03-02T01:06:35;8.40;92.90
11983;DHT22;72623;51.184;7.176;2024-03-02T01:09:02;8.30;92.50
11983;DHT22;72623;51.184;7.176;2024-03-02T01:11:29;8.40;92.40
11983;DHT22;72623;51.184;7.176;2024-03-02T01:13:56;8.40;92.10
11983;DHT22;72623;51.184;7.176;2024-03-02T01:16:23;8.40;91.80
11983;DHT22;72623;51.184;7.176;2024-03-02T01:18:50;8.40;91.90
11983;DHT22;72623;51.184;7.176;2024-03-02T01:21:17;8.40;92.10
11983;DHT22;72623;51.184;7.176;2024-03-02T01:23:49;8.40;91.60
11983;DHT22;72623;51.184;7.176;2024-03-02T01:26:16;8.40;91.50
11983;DHT22;72623;51.184;7.176;2024-03-02T01:28:43;8.50;91.10
11983;DHT22;72623;51.184;7.176;2024-03-02T01:31:09;8.50;90.70
11983;DHT22;72623;51.184;7.176;2024-03-02T01:33:36;8.50;90.60
11983;DHT22;72623;51.184;7.176;2024-03-02T01:36:03;8.50;90.60
11983;DHT22;72623;51.184;7.176;2024-03-02T01:38:30;8.60;90.20
11983;DHT22;72623;51.184;7.176;2024-03-02T01:40:56;8.60;90.20
11983;DHT22;72623;51.184;7.176;2024-03-02T01:43:23;8.50;89.80
11983;DHT22;72623;51.184;7.176;2024-03-02T01:45:51;8.50;89.40
11983;DHT22;72623;51.184;7.176;2024-03-02T01:48:18;8.50;89.60
11983;DHT22;72623;51.184;7.176;2024-03-02T01:50:45;8.50;89.60
11983;DHT22;72623;51.184;7.176;2024-03-02T01:53:12;8.60;89.00
11983;DHT22;72623;51.184;7.176;2024-03-02T01:55:38;8.60;89.10
11983;DHT22;72623;51.184;7.176;2024-03-02T01:58:05;8.60;89.20
11983;DHT22;72623;51.184;7.176;2024-03-02T02:00:32;8.60;88.80
11983;DHT22;72623;51.184;7.176;2024-03-02T02:02:59;8.60;89.90
11983;DHT22;72623;51.184;7.176;2024-03-02T02:05:25;8.60;88.70
11983;DHT22;72623;51.184;7.176;2024-03-02T02:07:52;8.60;89.00
11983;DHT22;72623;51.184;7.176;2024-03-02T02:10:19;8.50;89.50
11983;DHT22;72623;51.184;7.176;2024-03-02T02:12:45;8.60;89.10
11983;DHT22;72623;51.184;7.176;2024-03-02T02:15:28;8.60;88.40
11983;DHT22;72623;51.184;7.176;2024-03-02T02:17:56;8.50;88.70
11983;DHT22;72623;51.184;7.176;2024-03-02T02:20:24;8.50;88.10
11983;DHT22;72623;51.184;7.176;2024-03-02T02:25:24;8.60;88.00
11983;DHT22;72623;51.184;7.176;2024-03-02T02:27:51;8.60;88.00
11983;DHT22;72623;51.184;7.176;2024-03-02T02:30:29;8.60;88.80
11983;DHT22;72623;51.184;7.176;2024-03-02T02:32:56;8.60;88.40
11983;DHT22;72623;51.184;7.176;2024-03-02T02:35:23;8.60;87.70
11983;DHT22;72623;51.184;7.176;2024-03-02T02:37:57;8.60;88.10
11983;DHT22;72623;51.184;7.176;2024-03-02T02:40:24;8.60;87.80
11983;DHT22;72623;51.184;7.176;2024-03-02T02:42:51;8.70;87.80
11983;DHT22;72623;51.184;7.176;2024-03-02T02:45:18;8.70;88.10
11983;DHT22;72623;51.184;7.176;2024-03-02T02:47:44;8.70;86.90
11983;DHT22;72623;51.184;7.176;2024-03-02T02:50:12;8.70;86.70
11983;DHT22;72623;51.184;7.176;2024-03-02T02:52:40;8.60;86.60
11983;DHT22;72623;51.184;7.176;2024-03-02T02:55:09;8.60;87.00
11983;DHT22;72623;51.184;7.176;2024-03-02T02:57:39;8.70;87.20
11983;DHT22;72623;51.184;7.176;2024-03-02T03:00:12;8.70;87.60
11983;DHT22;72623;51.184;7.176;2024-03-02T03:02:48;8.70;87.90
11983;DHT22;72623;51.184;7.176;2024-03-02T03:05:15;8.70;86.20
11983;DHT22;72623;51.184;7.176;2024-03-02T03:07:42;8.70;86.40
11983;DHT22;72623;51.184;7.176;2024-03-02T03:10:09;8.70;85.30
11983;DHT22;72623;51.184;7.176;2024-03-02T03:12:36;8.70;85.20
11983;DHT22;72623;51.184;7.176;2024-03-02T03:15:03;8.70;85.40
11983;DHT22;72623;51.184;7.176;2024-03-02T03:17:32;8.70;85.60
11983;DHT22;72623;51.184;7.176;2024-03-02T03:19:58;8.70;85.10
11983;DHT22;72623;51.184;7.176;2024-03-02T03:22:26;8.70;84.80
11983;DHT22;72623;51.184;7.176;2024-03-02T03:24:53;8.70;84.80
11983;DHT22;72623;51.184;7.176;2024-03-02T03:27:20;8.70;83.80
11983;DHT22;72623;51.184;7.176;2024-03-02T03:29:47;8.70;83.90
11983;DHT22;72623;51.184;7.176;2024-03-02T03:32:14;8.70;84.00
11983;DHT22;72623;51.184;7.176;2024-03-02T03:34:42;8.60;84.00
11983;DHT22;72623;51.184;7.176;2024-03-02T03:37:09;8.60;84.30
11983;DHT22;72623;51.184;7.176;2024-03-02T03:39:36;8.60;84.00
11983;DHT22;72623;51.184;7.176;2024-03-02T03:42:03;8.60;84.50
11983;DHT22;72623;51.184;7.176;2024-03-02T03:44:30;8.50;84.60
11983;DHT22;72623;51.184;7.176;2024-03-02T03:46:56;8.50;84.70
11983;DHT22;72623;51.184;7.176;2024-03-02T03:49:23;8.60;85.00
11983;DHT22;72623;51.184;7.176;2024-03-02T03:51:50;8.60;85.20
11983;DHT22;72623;51.184;7.176;2024-03-02T03:54:16;8.60;84.20
11983;DHT22;72623;51.184;7.176;2024-03-02T03:56:43;8.60;85.00
11983;DHT22;72623;51.184;7.176;2024-03-02T03:59:10;8.60;84.70
11983;DHT22;72623;51.184;7.176;2024-03-02T04:01:37;8.60;84.80
11983;DHT22;72623;51.184;7.176;2024-03-02T04:04:04;8.60;85.30
11983;DHT22;72623;51.184;7.176;2024-03-02T04:06:30;8.70;84.60
11983;DHT22;72623;51.184;7.176;2024-03-02T04:08:57;8.70;84.40
11983;DHT22;72623;51.184;7.176;2024-03-02T04:11:24;8.60;85.00
11983;DHT22;72623;51.184;7.176;2024-03-02T04:13:50;8.70;84.60
11983;DHT22;72623;51.184;7.176;2024-03-02T04:16:17;8.60;84.70
11983;DHT22;72623;51.184;7.176;2024-03-02T04:18:44;8.70;84.80
11983;DHT22;72623;51.184;7.176;2024-03-02T04:21:11;8.60;84.70
11983;DHT22;72623;51.184;7.176;2024-03-02T04:23:38;8.70;84.80
11983;DHT22;72623;51.184;7.176;2024-03-02T04:26:05;8.60;85.00
11983;DHT22;72623;51.184;7.176;2024-03-02T04:28:32;8.70;85.30
11983;DHT22;72623;51.184;7.176;2024-03-02T04:30:58;8.70;85.40
11983;DHT22;72623;51.184;7.176;2024-03-02T04:33:25;8.70;84.30
11983;DHT22;72623;51.184;7.176;2024-03-02T04:35:52;8.60;85.20
11983;DHT22;72623;51.184;7.176;2024-03-02T04:38:18;8.60;85.40
11983;DHT22;72623;51.184;7.176;2024-03-02T04:40:45;8.60;85.50
11983;DHT22;72623;51.184;7.176;2024-03-02T04:43:11;8.60;85.00
11983;DHT22;72623;51.184;7.176;2024-03-02T04:45:41;8.60;85.30
11983;DHT22;72623;51.184;7.176;2024-03-02T04:48:09;8.60;84.70
11983;DHT22;72623;51.184;7.176;2024-03-02T04:50:35;8.50;84.70
11983;DHT22;72623;51.184;7.176;2024-03-02T04:53:02;8.50;85.90
11983;DHT22;72623;51.184;7.176;2024-03-02T04:55:29;8.50;85.70
11983;DHT22;72623;51.184;7.176;2024-03-02T04:58:29;8.50;85.50
11983;DHT22;72623;51.184;7.176;2024-03-02T05:00:56;8.40;86.10
11983;DHT22;72623;51.184;7.176;2024-03-02T05:03:22;8.40;86.00
11983;DHT22;72623;51.184;7.176;2024-03-02T05:05:49;8.40;86.30
11983;DHT22;72623;51.184;7.176;2024-03-02T05:08:16;8.30;86.40
11983;DHT22;72623;51.184;7.176;2024-03-02T05:10:43;8.30;87.10
11983;DHT22;72623;51.184;7.176;2024-03-02T05:13:09;8.30;86.90
11983;DHT22;72623;51.184;7.176;2024-03-02T05:15:35;8.20;87.40
11983;DHT22;72623;51.184;7.176;2024-03-02T05:18:02;8.20;88.30
11983;DHT22;72623;51.184;7.176;2024-03-02T05:20:30;8.20;88.00
11983;DHT22;72623;51.184;7.176;2024-03-02T05:22:57;8.20;88.30
11983;DHT22;72623;51.184;7.176;2024-03-02T05:25:23;8.20;88.60
11983;DHT22;72623;51.184;7.176;2024-03-02T05:27:50;8.20;88.40
11983;DHT22;72623;51.184;7.176;2024-03-02T05:30:17;8.20;88.80
11983;DHT22;72623;51.184;7.176;2024-03-02T05:32:43;8.20;88.80
11983;DHT22;72623;51.184;7.176;2024-03-02T05:35:10;8.10;89.00
11983;DHT22;72623;51.184;7.176;2024-03-02T05:37:38;8.20;89.20
11983;DHT22;72623;51.184;7.176;2024-03-02T05:40:05;8.10;89.60
11983;DHT22;72623;51.184;7.176;2024-03-02T05:42:32;8.10;89.60
11983;DHT22;72623;51.184;7.176;2024-03-02T05:44:58;8.10;90.30
11983;DHT22;72623;51.184;7.176;2024-03-02T05:47:25;8.00;90.20
11983;DHT22;72623;51.184;7.176;2024-03-02T05:49:53;8.00;90.10
11983;DHT22;72623;51.184;7.176;2024-03-02T05:52:19;8.00;90.40
11983;DHT22;72623;51.184;7.176;2024-03-02T05:54:46;7.90;90.60
11983;DHT22;72623;51.184;7.176;2024-03-02T05:57:14;7.80;91.10
11983;DHT22;72623;51.184;7.176;2024-03-02T06:00:15;7.80;92.10
11983;DHT22;72623;51.184;7.176;2024-03-02T06:02:42;7.80;92.90
11983;DHT22;72623;51.184;7.176;2024-03-02T06:05:17;7.80;92.60
11983;DHT22;72623;51.184;7.176;2024-03-02T06:07:44;7.80;93.10
11983;DHT22;72623;51.184;7.176;2024-03-02T06:10:10;7.70;93.10
11983;DHT22;72623;51.184;7.176;2024-03-02T06:12:38;7.80;93.70
11983;DHT22;72623;51.184;7.176;2024-03-02T06:15:17;7.80;93.60
11983;DHT22;72623;51.184;7.176;2024-03-02T06:17:44;7.70;93.80
11983;DHT22;72623;51.184;7.176;2024-03-02T06:20:29;7.70;93.90
11983;DHT22;72623;51.184;7.176;2024-03-02T06:22:56;7.70;94.10
11983;DHT22;72623;51.184;7.176;2024-03-02T06:25:23;7.70;94.10
11983;DHT22;72623;51.184;7.176;2024-03-02T06:27:49;7.70;94.50
11983;DHT22;72623;51.184;7.176;2024-03-02T06:30:16;7.70;95.20
11983;DHT22;72623;51.184;7.176;2024-03-02T06:32:43;7.70;95.60
11983;DHT22;72623;51.184;7.176;2024-03-02T06:35:10;7.70;95.90
11983;DHT22;72623;51.184;7.176;2024-03-02T06:37:38;7.70;95.30
11983;DHT22;72623;51.184;7.176;2024-03-02T06:40:06;7.70;95.40
11983;DHT22;72623;51.184;7.176;2024-03-02T06:42:34;7.80;95.40
11983;DHT22;72623;51.184;7.176;2024-03-02T06:45:02;7.80;95.00
11983;DHT22;72623;51.184;7.176;2024-03-02T06:47:29;7.80;95.20
11983;DHT22;72623;51.184;7.176;2024-03-02T06:49:55;7.90;94.70
11983;DHT22;72623;51.184;7.176;2024-03-02T06:52:23;7.90;94.20
11983;DHT22;72623;51.184;7.176;2024-03-02T06:54:50;8.00;94.20
11983;DHT22;72623;51.184;7.176;2024-03-02T06:57:17;7.90;94.50
11983;DHT22;72623;51.184;7.176;2024-03-02T06:59:45;7.90;94.40
11983;DHT22;72623;51.184;7.176;2024-03-02T07:02:12;7.90;94.30
11983;DHT22;72623;51.184;7.176;2024-03-02T07:04:38;8.00;94.70
11983;DHT22;72623;51.184;7.176;2024-03-02T07:07:05;8.00;94.30
11983;DHT22;72623;51.184;7.176;2024-03-02T07:09:32;8.00;94.90
11983;DHT22;72623;51.184;7.176;2024-03-02T07:11:58;8.00;94.50
11983;DHT22;72623;51.184;7.176;2024-03-02T07:14:25;8.00;94.30
11983;DHT22;72623;51.184;7.176;2024-03-02T07:17:11;8.10;94.30
11983;DHT22;72623;51.184;7.176;2024-03-02T07:19:38;8.10;94.10
11983;DHT22;72623;51.184;7.176;2024-03-02T07:22:08;8.20;93.90
11983;DHT22;72623;51.184;7.176;2024-03-02T07:24:41;8.20;94.10
11983;DHT22;72623;51.184;7.176;2024-03-02T07:27:09;8.30;93.70
11983;DHT22;72623;51.184;7.176;2024-03-02T07:29:37;8.40;93.70
11983;DHT22;72623;51.184;7.176;2024-03-02T07:32:05;8.50;93.30
11983;DHT22;72623;51.184;7.176;2024-03-02T07:34:32;8.60;93.40
11983;DHT22;72623;51.184;7.176;2024-03-02T07:36:59;8.60;93.50
11983;DHT22;72623;51.184;7.176;2024-03-02T07:39:26;8.70;93.20
11983;DHT22;72623;51.184;7.176;2024-03-02T07:41:53;8.70;92.80
11983;DHT22;72623;51.184;7.176;2024-03-02T07:44:20;8.80;92.30
11983;DHT22;72623;51.184;7.176;2024-03-02T07:46:48;8.80;91.90
11983;DHT22;72623;51.184;7.176;2024-03-02T07:49:16;8.90;90.90
11983;DHT22;72623;51.184;7.176;2024-03-02T07:51:43;9.00;90.90
11983;DHT22;72623;51.184;7.176;2024-03-02T07:54:10;9.10;91.00
11983;DHT22;72623;51.184;7.176;2024-03-02T07:56:37;9.20;90.00
11983;DHT22;72623;51.184;7.176;2024-03-02T07:59:04;9.10;89.20
11983;DHT22;72623;51.184;7.176;2024-03-02T08:01:32;9.20;88.60
11983;DHT22;72623;51.184;7.176;2024-03-02T08:04:02;9.30;88.70
11983;DHT22;72623;51.184;7.176;2024-03-02T08:06:29;9.30;88.20
11983;DHT22;72623;51.184;7.176;2024-03-02T08:08:57;9.40;86.50
11983;DHT22;72623;51.184;7.176;2024-03-02T08:11:24;9.40;85.50
11983;DHT22;72623;51.184;7.176;2024-03-02T08:13:52;9.40;85.00
11983;DHT22;72623;51.184;7.176;2024-03-02T08:16:21;9.50;83.10
11983;DHT22;72623;51.184;7.176;2024-03-02T08:18:48;9.50;83.40
11983;DHT22;72623;51.184;7.176;2024-03-02T08:21:15;9.50;83.00
11983;DHT22;72623;51.184;7.176;2024-03-02T08:23:43;9.50;84.20
11983;DHT22;72623;51.184;7.176;2024-03-02T08:26:10;9.50;83.50
11983;DHT22;72623;51.184;7.176;2024-03-02T08:28:37;9.60;84.60
11983;DHT22;72623;51.184;7.176;2024-03-02T08:31:06;9.70;83.80
11983;DHT22;72623;51.184;7.176;2024-03-02T08:33:33;9.90;83.60
11983;DHT22;72623;51.184;7.176;2024-03-02T08:36:00;10.00;78.30
11983;DHT22;72623;51.184;7.176;2024-03-02T08:38:28;10.10;76.90
11983;DHT22;72623;51.184;7.176;2024-03-02T08:40:54;10.10;76.00
11983;DHT22;72623;51.184;7.176;2024-03-02T08:43:25;10.10;75.90
11983;DHT22;72623;51.184;7.176;2024-03-02T08:45:52;10.40;76.00
11983;DHT22;72623;51.184;7.176;2024-03-02T08:48:19;10.60;74.00
11983;DHT22;72623;51.184;7.176;2024-03-02T08:50:46;10.80;70.50
11983;DHT22;72623;51.184;7.176;2024-03-02T08:53:13;11.10;70.50
11983;DHT22;72623;51.184;7.176;2024-03-02T08:55:46;11.30;70.50
11983;DHT22;72623;51.184;7.176;2024-03-02T08:58:13;11.50;67.10
11983;DHT22;72623;51.184;7.176;2024-03-02T09:00:40;11.80;66.00
11983;DHT22;72623;51.184;7.176;2024-03-02T09:03:07;12.00;63.20
11983;DHT22;72623;51.184;7.176;2024-03-02T09:05:34;12.20;58.40
11983;DHT22;72623;51.184;7.176;2024-03-02T09:08:01;12.20;57.10
11983;DHT22;72623;51.184;7.176;2024-03-02T09:10:29;12.30;56.40
11983;DHT22;72623;51.184;7.176;2024-03-02T09:12:55;12.40;55.50
11983;DHT22;72623;51.184;7.176;2024-03-02T09:15:22;12.30;54.10
11983;DHT22;72623;51.184;7.176;2024-03-02T09:17:48;12.20;55.30
11983;DHT22;72623;51.184;7.176;2024-03-02T09:20:15;12.20;55.20
11983;DHT22;72623;51.184;7.176;2024-03-02T09:22:42;12.10;55.50
11983;DHT22;72623;51.184;7.176;2024-03-02T09:25:09;12.10;54.50
11983;DHT22;72623;51.184;7.176;2024-03-02T09:27:39;12.20;56.20
11983;DHT22;72623;51.184;7.176;2024-03-02T09:30:08;12.20;54.70
11983;DHT22;72623;51.184;7.176;2024-03-02T09:32:34;12.20;55.20
11983;DHT22;72623;51.184;7.176;2024-03-02T09:35:01;12.30;55.60
11983;DHT22;72623;51.184;7.176;2024-03-02T09:37:28;12.30;54.50
11983;DHT22;72623;51.184;7.176;2024-03-02T09:39:55;12.20;54.20
11983;DHT22;72623;51.184;7.176;2024-03-02T09:42:22;12.20;55.80
11983;DHT22;72623;51.184;7.176;2024-03-02T09:44:49;12.30;54.80
11983;DHT22;72623;51.184;7.176;2024-03-02T09:47:16;12.40;54.30
11983;DHT22;72623;51.184;7.176;2024-03-02T09:49:42;12.40;55.20
11983;DHT22;72623;51.184;7.176;2024-03-02T09:52:10;12.50;55.50
11983;DHT22;72623;51.184;7.176;2024-03-02T09:54:37;12.50;53.30
11983;DHT22;72623;51.184;7.176;2024-03-02T09:57:04;12.50;54.60
11983;DHT22;72623;51.184;7.176;2024-03-02T09:59:31;12.60;53.30
11983;DHT22;72623;51.184;7.176;2024-03-02T10:02:01;12.70;54.80
11983;DHT22;72623;51.184;7.176;2024-03-02T10:04:29;12.80;53.10
11983;DHT22;72623;51.184;7.176;2024-03-02T10:09:37;12.90;52.90
11983;DHT22;72623;51.184;7.176;2024-03-02T10:12:05;12.90;51.80
11983;DHT22;72623;51.184;7.176;2024-03-02T10:14:40;12.90;51.90
11983;DHT22;72623;51.184;7.176;2024-03-02T10:17:08;13.00;52.90
11983;DHT22;72623;51.184;7.176;2024-03-02T10:19:35;13.00;51.30
11983;DHT22;72623;51.184;7.176;2024-03-02T10:22:04;13.00;51.50
11983;DHT22;72623;51.184;7.176;2024-03-02T10:24:39;13.10;49.20
11983;DHT22;72623;51.184;7.176;2024-03-02T10:27:09;13.10;47.20
11983;DHT22;72623;51.184;7.176;2024-03-02T10:29:37;13.00;48.00
11983;DHT22;72623;51.184;7.176;2024-03-02T10:32:04;13.00;49.40
11983;DHT22;72623;51.184;7.176;2024-03-02T10:34:32;13.10;48.90
11983;DHT22;72623;51.184;7.176;2024-03-02T10:36:59;13.10;47.70
11983;DHT22;72623;51.184;7.176;2024-03-02T10:39:25;13.10;46.20
11983;DHT22;72623;51.184;7.176;2024-03-02T10:41:53;13.10;45.60
11983;DHT22;72623;51.184;7.176;2024-03-02T10:44:22;13.00;45.10
11983;DHT22;72623;51.184;7.176;2024-03-02T10:46:50;12.90;45.60
11983;DHT22;72623;51.184;7.176;2024-03-02T10:49:16;13.00;43.90
11983;DHT22;72623;51.184;7.176;2024-03-02T10:51:43;13.00;46.10
11983;DHT22;72623;51.184;7.176;2024-03-02T10:54:10;13.10;43.80
11983;DHT22;72623;51.184;7.176;2024-03-02T10:56:39;13.20;43.80
11983;DHT22;72623;51.184;7.176;2024-03-02T11:01:56;13.30;44.30
11983;DHT22;72623;51.184;7.176;2024-03-02T11:04:24;13.30;43.50
11983;DHT22;72623;51.184;7.176;2024-03-02T11:06:56;13.40;42.90
11983;DHT22;72623;51.184;7.176;2024-03-02T11:09:26;13.40;41.10
11983;DHT22;72623;51.184;7.176;2024-03-02T11:12:13;13.30;43.10
11983;DHT22;72623;51.184;7.176;2024-03-02T11:14:43;13.40;42.90
11983;DHT22;72623;51.184;7.176;2024-03-02T11:17:12;13.40;41.90
11983;DHT22;72623;51.184;7.176;2024-03-02T11:19:41;13.50;43.30
11983;DHT22;72623;51.184;7.176;2024-03-02T11:22:08;13.50;39.90
11983;DHT22;72623;51.184;7.176;2024-03-02T11:24:35;13.40;39.70
11983;DHT22;72623;51.184;7.176;2024-03-02T11:27:04;13.40;40.00
11983;DHT22;72623;51.184;7.176;2024-03-02T11:32:17;13.50;39.60
11983;DHT22;72623;51.184;7.176;2024-03-02T11:34:48;13.50;38.10
11983;DHT22;72623;51.184;7.176;2024-03-02T11:37:17;13.40;39.60
11983;DHT22;72623;51.184;7.176;2024-03-02T11:39:45;13.40;40.30
11983;DHT22;72623;51.184;7.176;2024-03-02T11:42:13;13.50;39.70
11983;DHT22;72623;51.184;7.176;2024-03-02T11:44:47;13.50;40.10
11983;DHT22;72623;51.184;7.176;2024-03-02T11:47:16;13.60;40.10
11983;DHT22;72623;51.184;7.176;2024-03-02T11:49:49;13.60;40.00
11983;DHT22;72623;51.184;7.176;2024-03-02T11:52:17;13.70;39.40
11983;DHT22;72623;51.184;7.176;2024-03-02T11:54:45;13.70;38.80
11983;DHT22;72623;51.184;7.176;2024-03-02T11:57:15;13.70;40.20
11983;DHT22;72623;51.184;7.176;2024-03-02T11:59:42;13.70;40.70
11983;DHT22;72623;51.184;7.176;2024-03-02T12:02:21;13.80;39.90
11983;DHT22;72623;51.184;7.176;2024-03-02T12:04:49;13.70;38.40
11983;DHT22;72623;51.184;7.176;2024-03-02T12:07:20;13.70;39.20
11983;DHT22;72623;51.184;7.176;2024-03-02T12:09:48;13.70;39.20
11983;DHT22;72623;51.184;7.176;2024-03-02T12:12:15;13.70;38.30
11983;DHT22;72623;51.184;7.176;2024-03-02T12:14:51;13.60;39.00
11983;DHT22;72623;51.184;7.176;2024-03-02T12:17:18;13.60;38.00
11983;DHT22;72623;51.184;7.176;2024-03-02T12:19:45;13.50;37.40
11983;DHT22;72623;51.184;7.176;2024-03-02T12:22:11;13.40;38.00
11983;DHT22;72623;51.184;7.176;2024-03-02T12:24:38;13.20;37.80
11983;DHT22;72623;51.184;7.176;2024-03-02T12:27:08;13.30;39.10
11983;DHT22;72623;51.184;7.176;2024-03-02T12:29:35;13.30;39.60
11983;DHT22;72623;51.184;7.176;2024-03-02T12:32:01;13.40;39.80
11983;DHT22;72623;51.184;7.176;2024-03-02T12:34:28;13.30;39.40
11983;DHT22;72623;51.184;7.176;2024-03-02T12:36:55;13.30;39.30
11983;DHT22;72623;51.184;7.176;2024-03-02T12:39:22;13.30;40.00
11983;DHT22;72623;51.184;7.176;2024-03-02T12:41:49;13.20;39.60
11983;DHT22;72623;51.184;7.176;2024-03-02T12:44:17;13.20;39.40
11983;DHT22;72623;51.184;7.176;2024-03-02T12:46:44;13.10;38.80
11983;DHT22;72623;51.184;7.176;2024-03-02T12:49:13;13.00;39.20
11983;DHT22;72623;51.184;7.176;2024-03-02T12:51:42;13.10;39.50
11983;DHT22;72623;51.184;7.176;2024-03-02T12:54:10;13.10;41.50
11983;DHT22;72623;51.184;7.176;2024-03-02T12:56:37;13.20;39.80
11983;DHT22;72623;51.184;7.176;2024-03-02T12:59:06;13.20;40.50
11983;DHT22;72623;51.184;7.176;2024-03-02T13:01:36;13.20;40.60
11983;DHT22;72623;51.184;7.176;2024-03-02T13:04:02;13.20;39.60
11983;DHT22;72623;51.184;7.176;2024-03-02T13:06:29;13.20;39.00
11983;DHT22;72623;51.184;7.176;2024-03-02T13:08:59;13.20;38.30
11983;DHT22;72623;51.184;7.176;2024-03-02T13:11:26;13.20;38.40
11983;DHT22;72623;51.184;7.176;2024-03-02T13:13:52;13.20;39.70
11983;DHT22;72623;51.184;7.176;2024-03-02T13:16:19;13.20;39.10
11983;DHT22;72623;51.184;7.176;2024-03-02T13:18:46;13.30;39.90
11983;DHT22;72623;51.184;7.176;2024-03-02T13:21:13;13.30;38.30
11983;DHT22;72623;51.184;7.176;2024-03-02T13:23:40;13.20;38.60
11983;DHT22;72623;51.184;7.176;2024-03-02T13:26:07;13.20;38.60
11983;DHT22;72623;51.184;7.176;2024-03-02T13:28:35;13.20;39.00
11983;DHT22;72623;51.184;7.176;2024-03-02T13:31:02;13.30;36.80
11983;DHT22;72623;51.184;7.176;2024-03-02T13:33:29;13.20;37.20
11983;DHT22;72623;51.184;7.176;2024-03-02T13:35:58;13.20;37.70
11983;DHT22;72623;51.184;7.176;2024-03-02T13:38:24;13.20;35.70
11983;DHT22;72623;51.184;7.176;2024-03-02T13:40:52;13.20;37.10
11983;DHT22;72623;51.184;7.176;2024-03-02T13:43:18;13.20;37.20
11983;DHT22;72623;51.184;7.176;2024-03-02T13:45:45;13.30;35.90
11983;DHT22;72623;51.184;7.176;2024-03-02T13:48:12;13.30;36.00
11983;DHT22;72623;51.184;7.176;2024-03-02T13:50:40;13.30;37.30
11983;DHT22;72623;51.184;7.176;2024-03-02T13:53:07;13.30;35.70
11983;DHT22;72623;51.184;7.176;2024-03-02T13:55:34;13.30;36.40
11983;DHT22;72623;51.184;7.176;2024-03-02T13:58:01;13.40;36.30
11983;DHT22;72623;51.184;7.176;2024-03-02T14:00:27;13.40;36.50
11983;DHT22;72623;51.184;7.176;2024-03-02T14:02:55;13.40;37.50
11983;DHT22;72623;51.184;7.176;2024-03-02T14:05:21;13.50;36.00
11983;DHT22;72623;51.184;7.176;2024-03-02T14:07:48;13.50;35.80
11983;DHT22;72623;51.184;7.176;2024-03-02T14:10:15;13.50;36.60
11983;DHT22;72623;51.184;7.176;2024-03-02T14:12:41;13.50;35.20
11983;DHT22;72623;51.184;7.176;2024-03-02T14:15:08;13.40;36.80
11983;DHT22;72623;51.184;7.176;2024-03-02T14:17:35;13.50;35.60
11983;DHT22;72623;51.184;7.176;2024-03-02T14:20:02;13.40;36.70
11983;DHT22;72623;51.184;7.176;2024-03-02T14:22:30;13.40;37.50
11983;DHT22;72623;51.184;7.176;2024-03-02T14:24:57;13.40;36.90
11983;DHT22;72623;51.184;7.176;2024-03-02T14:27:24;13.20;37.70
11983;DHT22;72623;51.184;7.176;2024-03-02T14:29:52;13.30;38.20
11983;DHT22;72623;51.184;7.176;2024-03-02T14:32:18;13.30;38.70
11983;DHT22;72623;51.184;7.176;2024-03-02T14:34:45;13.30;37.10
11983;DHT22;72623;51.184;7.176;2024-03-02T14:37:16;13.30;37.50
11983;DHT22;72623;51.184;7.176;2024-03-02T14:39:42;13.30;38.70
11983;DHT22;72623;51.184;7.176;2024-03-02T14:42:09;13.30;39.10
11983;DHT22;72623;51.184;7.176;2024-03-02T14:44:36;13.20;39.30
11983;DHT22;72623;51.184;7.176;2024-03-02T14:47:03;13.20;38.80
11983;DHT22;72623;51.184;7.176;2024-03-02T14:49:30;13.20;38.80
11983;DHT22;72623;51.184;7.176;2024-03-02T14:51:59;13.20;39.90
11983;DHT22;72623;51.184;7.176;2024-03-02T14:54:25;13.20;39.30
11983;DHT22;72623;51.184;7.176;2024-03-02T14:56:52;13.20;38.70
11983;DHT22;72623;51.184;7.176;2024-03-02T14:59:19;13.20;39.70
11983;DHT22;72623;51.184;7.176;2024-03-02T15:01:45;13.10;38.70
11983;DHT22;72623;51.184;7.176;2024-03-02T15:04:14;13.10;39.60
11983;DHT22;72623;51.184;7.176;2024-03-02T15:06:42;13.10;40.20
11983;DHT22;72623;51.184;7.176;2024-03-02T15:09:09;13.20;39.30
11983;DHT22;72623;51.184;7.176;2024-03-02T15:11:35;13.10;39.00
11983;DHT22;72623;51.184;7.176;2024-03-02T15:14:02;13.10;37.90
11983;DHT22;72623;51.184;7.176;2024-03-02T15:16:29;13.10;38.60
11983;DHT22;72623;51.184;7.176;2024-03-02T15:18:56;13.10;37.80
11983;DHT22;72623;51.184;7.176;2024-03-02T15:21:22;13.10;38.00
11983;DHT22;72623;51.184;7.176;2024-03-02T15:23:49;13.10;37.90
11983;DHT22;72623;51.184;7.176;2024-03-02T15:26:16;13.10;37.70
11983;DHT22;72623;51.184;7.176;2024-03-02T15:28:42;13.10;37.10
11983;DHT22;72623;51.184;7.176;2024-03-02T15:31:09;13.10;38.40
11983;DHT22;72623;51.184;7.176;2024-03-02T15:33:36;13.10;38.60
11983;DHT22;72623;51.184;7.176;2024-03-02T15:36:02;13.10;39.70
11983;DHT22;72623;51.184;7.176;2024-03-02T15:38:30;13.10;39.40
11983;DHT22;72623;51.184;7.176;2024-03-02T15:40:57;13.10;39.70
11983;DHT22;72623;51.184;7.176;2024-03-02T15:43:24;13.00;40.20
11983;DHT22;72623;51.184;7.176;2024-03-02T15:45:50;13.00;40.90
11983;DHT22;72623;51.184;7.176;2024-03-02T15:48:17;13.10;41.30
11983;DHT22;72623;51.184;7.176;2024-03-02T15:50:44;13.10;41.40
11983;DHT22;72623;51.184;7.176;2024-03-02T15:53:10;13.10;41.70
11983;DHT22;72623;51.184;7.176;2024-03-02T15:55:38;13.10;41.80
11983;DHT22;72623;51.184;7.176;2024-03-02T15:58:05;13.10;41.50